sensor_id;sensor_type;location;lat;lon;timestamp;temperature;humidity
45409;DHT22;31162;51.076;3.784;2023-04-02T00:00:32;9.20;99.90
45409;DHT22;31162;51.076;3.784;2023-04-02T00:03:00;9.30;99.90
45409;DHT22;31162;51.076;3.784;2023-04-02T00:05:31;9.40;99.90
45409;DHT22;31162;51.076;3.784;2023-04-02T00:08:03;9.40;99.90
45409;DHT22;31162;51.076;3.784;2023-04-02T00:10:52;9.50;99.90
45409;DHT22;31162;51.076;3.784;2023-04-02T00:13:33;9.50;99.90
45409;DHT22;31162;51.076;3.784;2023-04-02T00:16:00;9.50;99.90
45409;DHT22;31162;51.076;3.784;2023-04-02T00:18:27;9.30;99.90
45409;DHT22;31162;51.076;3.784;2023-04-02T00:21:17;9.30;99.90
45409;DHT22;31162;51.076;3.784;2023-04-02T00:23:43;9.40;99.90
45409;DHT22;31162;51.076;3.784;2023-04-02T00:26:29;9.30;99.90
45409;DHT22;31162;51.076;3.784;2023-04-02T00:28:59;9.20;99.90
45409;DHT22;31162;51.076;3.784;2023-04-02T00:31:25;9.10;99.90
45409;DHT22;31162;51.076;3.784;2023-04-02T00:33:52;9.00;99.90
45409;DHT22;31162;51.076;3.784;2023-04-02T00:36:18;9.00;99.90
45409;DHT22;31162;51.076;3.784;2023-04-02T00:38:46;9.20;99.90
45409;DHT22;31162;51.076;3.784;2023-04-02T00:41:20;9.20;99.90
45409;DHT22;31162;51.076;3.784;2023-04-02T00:43:47;9.10;99.90
45409;DHT22;31162;51.076;3.784;2023-04-02T00:46:18;9.20;99.90
45409;DHT22;31162;51.076;3.784;2023-04-02T00:49:13;9.30;99.90
45409;DHT22;31162;51.076;3.784;2023-04-02T00:51:47;9.20;99.90
45409;DHT22;31162;51.076;3.784;2023-04-02T00:54:18;9.30;99.90
45409;DHT22;31162;51.076;3.784;2023-04-02T00:56:48;9.30;99.90
45409;DHT22;31162;51.076;3.784;2023-04-02T01:02:36;9.10;99.90
45409;DHT22;31162;51.076;3.784;2023-04-02T01:10:21;9.30;99.90
45409;DHT22;31162;51.076;3.784;2023-04-02T01:13:07;9.10;99.90
45409;DHT22;31162;51.076;3.784;2023-04-02T01:15:58;9.10;99.90
45409;DHT22;31162;51.076;3.784;2023-04-02T01:18:33;9.00;99.90
45409;DHT22;31162;51.076;3.784;2023-04-02T01:23:53;8.90;99.90
45409;DHT22;31162;51.076;3.784;2023-04-02T01:31:53;8.80;99.90
45409;DHT22;31162;51.076;3.784;2023-04-02T01:34:23;8.70;99.90
45409;DHT22;31162;51.076;3.784;2023-04-02T01:40:08;8.70;99.90
45409;DHT22;31162;51.076;3.784;2023-04-02T01:45:36;8.80;99.90
45409;DHT22;31162;51.076;3.784;2023-04-02T01:48:20;8.80;99.90
45409;DHT22;31162;51.076;3.784;2023-04-02T01:50:50;8.80;99.90
45409;DHT22;31162;51.076;3.784;2023-04-02T01:53:18;8.80;99.90
45409;DHT22;31162;51.076;3.784;2023-04-02T01:55:46;8.80;99.90
45409;DHT22;31162;51.076;3.784;2023-04-02T01:58:20;8.70;99.90
45409;DHT22;31162;51.076;3.784;2023-04-02T02:03:25;8.80;99.90
45409;DHT22;31162;51.076;3.784;2023-04-02T02:05:50;8.70;99.90
45409;DHT22;31162;51.076;3.784;2023-04-02T02:08:38;8.80;99.90
45409;DHT22;31162;51.076;3.784;2023-04-02T02:11:04;8.80;99.90
45409;DHT22;31162;51.076;3.784;2023-04-02T02:13:30;8.80;99.90
45409;DHT22;31162;51.076;3.784;2023-04-02T02:16:00;8.80;99.90
45409;DHT22;31162;51.076;3.784;2023-04-02T02:18:28;8.80;99.90
45409;DHT22;31162;51.076;3.784;2023-04-02T02:20:56;8.80;99.90
45409;DHT22;31162;51.076;3.784;2023-04-02T02:23:23;8.80;99.90
45409;DHT22;31162;51.076;3.784;2023-04-02T02:25:49;8.80;99.90
45409;DHT22;31162;51.076;3.784;2023-04-02T02:28:19;8.80;99.90
45409;DHT22;31162;51.076;3.784;2023-04-02T02:30:51;8.70;99.90
45409;DHT22;31162;51.076;3.784;2023-04-02T02:33:22;8.60;99.90
45409;DHT22;31162;51.076;3.784;2023-04-02T02:35:59;8.70;99.90
45409;DHT22;31162;51.076;3.784;2023-04-02T02:43:43;8.50;99.90
45409;DHT22;31162;51.076;3.784;2023-04-02T02:46:13;8.50;99.90
45409;DHT22;31162;51.076;3.784;2023-04-02T02:48:41;8.40;99.90
45409;DHT22;31162;51.076;3.784;2023-04-02T02:51:13;8.40;99.90
45409;DHT22;31162;51.076;3.784;2023-04-02T02:53:49;8.40;99.90
45409;DHT22;31162;51.076;3.784;2023-04-02T02:56:15;8.40;99.90
45409;DHT22;31162;51.076;3.784;2023-04-02T02:58:42;8.40;99.90
45409;DHT22;31162;51.076;3.784;2023-04-02T03:01:08;8.40;99.90
45409;DHT22;31162;51.076;3.784;2023-04-02T03:03:34;8.40;99.90
45409;DHT22;31162;51.076;3.784;2023-04-02T03:06:05;8.40;99.90
45409;DHT22;31162;51.076;3.784;2023-04-02T03:08:39;8.40;99.90
45409;DHT22;31162;51.076;3.784;2023-04-02T03:13:38;8.50;99.90
45409;DHT22;31162;51.076;3.784;2023-04-02T03:18:55;8.40;99.90
45409;DHT22;31162;51.076;3.784;2023-04-02T03:26:53;8.50;99.90
45409;DHT22;31162;51.076;3.784;2023-04-02T03:29:24;8.50;99.90
45409;DHT22;31162;51.076;3.784;2023-04-02T03:32:11;8.50;99.90
45409;DHT22;31162;51.076;3.784;2023-04-02T03:34:45;8.40;99.90
45409;DHT22;31162;51.076;3.784;2023-04-02T03:37:23;8.40;99.90
45409;DHT22;31162;51.076;3.784;2023-04-02T03:39:56;8.40;99.90
45409;DHT22;31162;51.076;3.784;2023-04-02T03:42:27;8.30;99.90
45409;DHT22;31162;51.076;3.784;2023-04-02T03:47:46;8.30;99.90
45409;DHT22;31162;51.076;3.784;2023-04-02T03:52:52;8.20;99.90
45409;DHT22;31162;51.076;3.784;2023-04-02T03:55:21;8.20;99.90
45409;DHT22;31162;51.076;3.784;2023-04-02T04:00:34;8.10;99.90
45409;DHT22;31162;51.076;3.784;2023-04-02T04:03:25;8.10;99.90
45409;DHT22;31162;51.076;3.784;2023-04-02T04:06:05;8.20;99.90
45409;DHT22;31162;51.076;3.784;2023-04-02T04:08:45;8.20;99.90
45409;DHT22;31162;51.076;3.784;2023-04-02T04:11:16;8.20;99.90
45409;DHT22;31162;51.076;3.784;2023-04-02T04:13:58;8.20;99.90
45409;DHT22;31162;51.076;3.784;2023-04-02T04:16:52;8.20;99.90
45409;DHT22;31162;51.076;3.784;2023-04-02T04:19:56;8.10;99.90
45409;DHT22;31162;51.076;3.784;2023-04-02T04:22:25;8.10;99.90
45409;DHT22;31162;51.076;3.784;2023-04-02T04:24:56;8.00;99.90
45409;DHT22;31162;51.076;3.784;2023-04-02T04:27:39;8.10;99.90
45409;DHT22;31162;51.076;3.784;2023-04-02T04:30:44;8.10;99.90
45409;DHT22;31162;51.076;3.784;2023-04-02T04:33:25;8.10;99.90
45409;DHT22;31162;51.076;3.784;2023-04-02T04:35:57;8.20;99.90
45409;DHT22;31162;51.076;3.784;2023-04-02T04:38:36;8.10;99.90
45409;DHT22;31162;51.076;3.784;2023-04-02T04:41:13;8.10;99.90
45409;DHT22;31162;51.076;3.784;2023-04-02T04:46:41;8.00;99.90
45409;DHT22;31162;51.076;3.784;2023-04-02T04:49:26;8.10;99.90
45409;DHT22;31162;51.076;3.784;2023-04-02T04:52:05;8.00;99.90
45409;DHT22;31162;51.076;3.784;2023-04-02T04:54:36;7.90;99.90
45409;DHT22;31162;51.076;3.784;2023-04-02T04:57:03;7.80;99.90
45409;DHT22;31162;51.076;3.784;2023-04-02T04:59:40;7.90;99.90
45409;DHT22;31162;51.076;3.784;2023-04-02T05:02:17;8.00;99.90
45409;DHT22;31162;51.076;3.784;2023-04-02T05:04:50;7.90;99.90
45409;DHT22;31162;51.076;3.784;2023-04-02T05:07:20;7.80;99.90
45409;DHT22;31162;51.076;3.784;2023-04-02T05:10:14;7.80;99.90
45409;DHT22;31162;51.076;3.784;2023-04-02T05:13:10;7.80;99.90
45409;DHT22;31162;51.076;3.784;2023-04-02T05:16:10;7.70;99.90
45409;DHT22;31162;51.076;3.784;2023-04-02T05:19:12;7.70;99.90
45409;DHT22;31162;51.076;3.784;2023-04-02T05:22:00;7.70;99.90
45409;DHT22;31162;51.076;3.784;2023-04-02T05:27:32;7.70;99.90
45409;DHT22;31162;51.076;3.784;2023-04-02T05:35:46;7.80;99.90
45409;DHT22;31162;51.076;3.784;2023-04-02T05:38:25;7.90;99.90
45409;DHT22;31162;51.076;3.784;2023-04-02T05:41:00;7.90;99.90
45409;DHT22;31162;51.076;3.784;2023-04-02T05:43:27;7.90;99.90
45409;DHT22;31162;51.076;3.784;2023-04-02T05:45:57;8.00;99.90
45409;DHT22;31162;51.076;3.784;2023-04-02T05:48:38;7.90;99.90
45409;DHT22;31162;51.076;3.784;2023-04-02T05:51:08;7.70;99.90
45409;DHT22;31162;51.076;3.784;2023-04-02T05:56:17;7.70;99.90
45409;DHT22;31162;51.076;3.784;2023-04-02T05:59:10;7.70;99.90
45409;DHT22;31162;51.076;3.784;2023-04-02T06:01:58;7.60;99.90
45409;DHT22;31162;51.076;3.784;2023-04-02T06:07:23;7.60;99.90
45409;DHT22;31162;51.076;3.784;2023-04-02T06:12:36;7.60;99.90
45409;DHT22;31162;51.076;3.784;2023-04-02T06:15:03;7.60;99.90
45409;DHT22;31162;51.076;3.784;2023-04-02T06:17:40;7.50;99.90
45409;DHT22;31162;51.076;3.784;2023-04-02T06:20:15;7.50;99.90
45409;DHT22;31162;51.076;3.784;2023-04-02T06:22:43;7.50;99.90
45409;DHT22;31162;51.076;3.784;2023-04-02T06:25:14;7.40;99.90
45409;DHT22;31162;51.076;3.784;2023-04-02T06:27:44;7.40;99.90
45409;DHT22;31162;51.076;3.784;2023-04-02T06:30:35;7.40;99.90
45409;DHT22;31162;51.076;3.784;2023-04-02T06:33:02;7.40;99.90
45409;DHT22;31162;51.076;3.784;2023-04-02T06:35:28;7.30;99.90
45409;DHT22;31162;51.076;3.784;2023-04-02T06:37:56;7.20;99.90
45409;DHT22;31162;51.076;3.784;2023-04-02T06:40:43;7.10;99.90
45409;DHT22;31162;51.076;3.784;2023-04-02T06:43:27;7.10;99.90
45409;DHT22;31162;51.076;3.784;2023-04-02T06:45:59;7.10;99.90
45409;DHT22;31162;51.076;3.784;2023-04-02T06:48:28;7.10;99.90
45409;DHT22;31162;51.076;3.784;2023-04-02T06:51:02;7.20;99.90
45409;DHT22;31162;51.076;3.784;2023-04-02T06:53:34;7.40;99.90
45409;DHT22;31162;51.076;3.784;2023-04-02T06:58:46;7.30;99.90
45409;DHT22;31162;51.076;3.784;2023-04-02T07:01:22;7.30;99.90
45409;DHT22;31162;51.076;3.784;2023-04-02T07:03:49;7.40;99.90
45409;DHT22;31162;51.076;3.784;2023-04-02T07:06:16;7.40;99.90
45409;DHT22;31162;51.076;3.784;2023-04-02T07:08:43;7.50;99.90
45409;DHT22;31162;51.076;3.784;2023-04-02T07:11:16;7.50;99.90
45409;DHT22;31162;51.076;3.784;2023-04-02T07:13:43;7.40;99.90
45409;DHT22;31162;51.076;3.784;2023-04-02T07:16:14;7.40;99.90
45409;DHT22;31162;51.076;3.784;2023-04-02T07:18:41;7.40;99.90
45409;DHT22;31162;51.076;3.784;2023-04-02T07:21:07;7.30;99.90
45409;DHT22;31162;51.076;3.784;2023-04-02T07:23:32;7.30;99.90
45409;DHT22;31162;51.076;3.784;2023-04-02T07:25:58;7.40;99.90
45409;DHT22;31162;51.076;3.784;2023-04-02T07:28:25;7.50;99.90
45409;DHT22;31162;51.076;3.784;2023-04-02T07:30:51;7.60;99.90
45409;DHT22;31162;51.076;3.784;2023-04-02T07:33:19;7.70;99.90
45409;DHT22;31162;51.076;3.784;2023-04-02T07:35:45;7.70;99.90
45409;DHT22;31162;51.076;3.784;2023-04-02T07:38:11;7.70;99.90
45409;DHT22;31162;51.076;3.784;2023-04-02T07:40:37;7.60;99.90
45409;DHT22;31162;51.076;3.784;2023-04-02T07:43:04;7.60;99.90
45409;DHT22;31162;51.076;3.784;2023-04-02T07:45:30;7.70;99.90
45409;DHT22;31162;51.076;3.784;2023-04-02T07:47:56;7.60;99.90
45409;DHT22;31162;51.076;3.784;2023-04-02T07:50:22;7.60;99.90
45409;DHT22;31162;51.076;3.784;2023-04-02T07:52:48;7.60;99.90
45409;DHT22;31162;51.076;3.784;2023-04-02T07:55:15;7.60;99.90
45409;DHT22;31162;51.076;3.784;2023-04-02T07:57:51;7.60;99.90
45409;DHT22;31162;51.076;3.784;2023-04-02T08:00:17;7.50;99.90
45409;DHT22;31162;51.076;3.784;2023-04-02T08:02:43;7.50;99.90
45409;DHT22;31162;51.076;3.784;2023-04-02T08:05:10;7.40;99.90
45409;DHT22;31162;51.076;3.784;2023-04-02T08:07:36;7.20;99.90
45409;DHT22;31162;51.076;3.784;2023-04-02T08:10:04;7.20;99.90
45409;DHT22;31162;51.076;3.784;2023-04-02T08:12:31;7.30;99.90
45409;DHT22;31162;51.076;3.784;2023-04-02T08:14:57;7.40;99.90
45409;DHT22;31162;51.076;3.784;2023-04-02T08:17:22;7.40;99.90
45409;DHT22;31162;51.076;3.784;2023-04-02T08:19:48;7.50;99.90
45409;DHT22;31162;51.076;3.784;2023-04-02T08:22:15;7.40;99.90
45409;DHT22;31162;51.076;3.784;2023-04-02T08:24:40;7.50;99.90
45409;DHT22;31162;51.076;3.784;2023-04-02T08:27:06;7.60;99.90
45409;DHT22;31162;51.076;3.784;2023-04-02T08:29:32;7.60;99.90
45409;DHT22;31162;51.076;3.784;2023-04-02T08:31:58;7.70;99.90
45409;DHT22;31162;51.076;3.784;2023-04-02T08:34:24;7.80;99.90
45409;DHT22;31162;51.076;3.784;2023-04-02T08:36:54;7.90;99.90
45409;DHT22;31162;51.076;3.784;2023-04-02T08:39:20;7.60;99.90
45409;DHT22;31162;51.076;3.784;2023-04-02T08:45:57;7.40;99.90
45409;DHT22;31162;51.076;3.784;2023-04-02T08:47:51;7.40;99.90
45409;DHT22;31162;51.076;3.784;2023-04-02T08:50:34;7.40;99.90
45409;DHT22;31162;51.076;3.784;2023-04-02T08:53:03;7.30;99.90
45409;DHT22;31162;51.076;3.784;2023-04-02T09:00:49;7.40;99.90
45409;DHT22;31162;51.076;3.784;2023-04-02T09:03:19;7.50;99.90
45409;DHT22;31162;51.076;3.784;2023-04-02T09:05:47;7.60;99.90
45409;DHT22;31162;51.076;3.784;2023-04-02T09:08:22;7.50;99.90
45409;DHT22;31162;51.076;3.784;2023-04-02T09:13:44;7.60;99.90
45409;DHT22;31162;51.076;3.784;2023-04-02T09:16:15;7.70;99.90
45409;DHT22;31162;51.076;3.784;2023-04-02T09:18:43;7.80;99.90
45409;DHT22;31162;51.076;3.784;2023-04-02T09:21:28;7.60;99.90
45409;DHT22;31162;51.076;3.784;2023-04-02T09:23:55;7.70;99.90
45409;DHT22;31162;51.076;3.784;2023-04-02T09:26:30;7.70;99.90
45409;DHT22;31162;51.076;3.784;2023-04-02T09:35:10;7.70;99.90
45409;DHT22;31162;51.076;3.784;2023-04-02T09:37:40;7.70;99.90
45409;DHT22;31162;51.076;3.784;2023-04-02T09:40:25;7.80;99.90
45409;DHT22;31162;51.076;3.784;2023-04-02T09:43:18;7.80;99.90
45409;DHT22;31162;51.076;3.784;2023-04-02T09:45:55;7.70;99.90
45409;DHT22;31162;51.076;3.784;2023-04-02T09:48:23;7.70;99.90
45409;DHT22;31162;51.076;3.784;2023-04-02T09:51:18;7.80;99.90
45409;DHT22;31162;51.076;3.784;2023-04-02T09:56:38;7.40;99.90
45409;DHT22;31162;51.076;3.784;2023-04-02T09:59:05;7.50;99.90
45409;DHT22;31162;51.076;3.784;2023-04-02T10:01:37;7.80;99.90
45409;DHT22;31162;51.076;3.784;2023-04-02T10:04:05;7.90;99.90
45409;DHT22;31162;51.076;3.784;2023-04-02T10:06:32;8.10;99.90
45409;DHT22;31162;51.076;3.784;2023-04-02T10:09:19;8.30;99.90
45409;DHT22;31162;51.076;3.784;2023-04-02T10:11:46;8.20;99.90
45409;DHT22;31162;51.076;3.784;2023-04-02T10:14:18;8.20;99.90
45409;DHT22;31162;51.076;3.784;2023-04-02T10:16:56;8.50;99.90
45409;DHT22;31162;51.076;3.784;2023-04-02T10:21:54;8.50;99.90
45409;DHT22;31162;51.076;3.784;2023-04-02T10:24:20;8.50;99.90
45409;DHT22;31162;51.076;3.784;2023-04-02T10:40:33;8.70;99.90
45409;DHT22;31162;51.076;3.784;2023-04-02T10:48:14;8.80;99.90
45409;DHT22;31162;51.076;3.784;2023-04-02T10:51:27;8.80;99.90
45409;DHT22;31162;51.076;3.784;2023-04-02T10:54:12;8.80;99.90
45409;DHT22;31162;51.076;3.784;2023-04-02T10:56:43;9.00;99.90
45409;DHT22;31162;51.076;3.784;2023-04-02T11:01:42;8.90;99.90
45409;DHT22;31162;51.076;3.784;2023-04-02T11:04:31;8.90;99.90
45409;DHT22;31162;51.076;3.784;2023-04-02T11:07:05;9.00;99.90
45409;DHT22;31162;51.076;3.784;2023-04-02T11:09:36;9.00;99.90
45409;DHT22;31162;51.076;3.784;2023-04-02T11:12:04;8.90;99.90
45409;DHT22;31162;51.076;3.784;2023-04-02T11:14:31;9.20;99.90
45409;DHT22;31162;51.076;3.784;2023-04-02T11:16:59;9.10;99.90
45409;DHT22;31162;51.076;3.784;2023-04-02T11:19:33;9.10;99.90
45409;DHT22;31162;51.076;3.784;2023-04-02T11:27:05;9.20;99.90
45409;DHT22;31162;51.076;3.784;2023-04-02T11:29:32;9.00;99.90
45409;DHT22;31162;51.076;3.784;2023-04-02T11:37:37;9.60;99.90
45409;DHT22;31162;51.076;3.784;2023-04-02T11:42:55;9.20;99.90
45409;DHT22;31162;51.076;3.784;2023-04-02T11:48:26;8.90;99.90
45409;DHT22;31162;51.076;3.784;2023-04-02T11:50:52;8.80;99.90
45409;DHT22;31162;51.076;3.784;2023-04-02T11:53:31;9.00;99.90
45409;DHT22;31162;51.076;3.784;2023-04-02T11:56:20;9.50;99.90
45409;DHT22;31162;51.076;3.784;2023-04-02T11:59:22;10.00;99.90
45409;DHT22;31162;51.076;3.784;2023-04-02T12:02:38;10.20;99.90
45409;DHT22;31162;51.076;3.784;2023-04-02T12:08:04;10.10;99.90
45409;DHT22;31162;51.076;3.784;2023-04-02T12:13:21;10.10;99.90
45409;DHT22;31162;51.076;3.784;2023-04-02T12:16:13;10.20;99.90
45409;DHT22;31162;51.076;3.784;2023-04-02T12:18:43;10.10;99.90
45409;DHT22;31162;51.076;3.784;2023-04-02T12:21:19;10.20;99.90
45409;DHT22;31162;51.076;3.784;2023-04-02T12:23:46;10.30;99.90
45409;DHT22;31162;51.076;3.784;2023-04-02T12:26:34;9.70;99.90
45409;DHT22;31162;51.076;3.784;2023-04-02T12:29:27;9.50;99.90
45409;DHT22;31162;51.076;3.784;2023-04-02T12:31:54;9.60;99.90
45409;DHT22;31162;51.076;3.784;2023-04-02T12:34:23;9.70;99.90
45409;DHT22;31162;51.076;3.784;2023-04-02T12:37:03;9.60;99.90
45409;DHT22;31162;51.076;3.784;2023-04-02T12:39:33;9.50;99.90
45409;DHT22;31162;51.076;3.784;2023-04-02T12:41:59;9.40;99.90
45409;DHT22;31162;51.076;3.784;2023-04-02T12:44:27;9.20;99.90
45409;DHT22;31162;51.076;3.784;2023-04-02T12:46:53;9.10;99.90
45409;DHT22;31162;51.076;3.784;2023-04-02T12:49:35;8.70;99.90
45409;DHT22;31162;51.076;3.784;2023-04-02T12:52:08;8.60;99.90
45409;DHT22;31162;51.076;3.784;2023-04-02T12:54:42;8.50;99.90
45409;DHT22;31162;51.076;3.784;2023-04-02T13:00:27;8.50;99.90
45409;DHT22;31162;51.076;3.784;2023-04-02T13:05:39;8.70;99.90
45409;DHT22;31162;51.076;3.784;2023-04-02T13:08:21;8.90;99.90
45409;DHT22;31162;51.076;3.784;2023-04-02T13:10:56;8.80;99.90
45409;DHT22;31162;51.076;3.784;2023-04-02T13:13:26;8.70;99.90
45409;DHT22;31162;51.076;3.784;2023-04-02T13:16:07;8.60;99.90
45409;DHT22;31162;51.076;3.784;2023-04-02T13:18:48;8.70;99.90
45409;DHT22;31162;51.076;3.784;2023-04-02T13:23:45;8.70;99.90
45409;DHT22;31162;51.076;3.784;2023-04-02T13:26:20;8.70;99.90
45409;DHT22;31162;51.076;3.784;2023-04-02T13:29:16;8.80;99.90
45409;DHT22;31162;51.076;3.784;2023-04-02T13:31:43;9.10;99.90
45409;DHT22;31162;51.076;3.784;2023-04-02T13:34:09;9.10;99.90
45409;DHT22;31162;51.076;3.784;2023-04-02T13:36:34;9.10;99.90
45409;DHT22;31162;51.076;3.784;2023-04-02T13:39:01;9.10;99.90
45409;DHT22;31162;51.076;3.784;2023-04-02T13:41:28;9.10;99.90
45409;DHT22;31162;51.076;3.784;2023-04-02T13:43:58;9.10;99.90
45409;DHT22;31162;51.076;3.784;2023-04-02T13:46:29;9.20;99.90
45409;DHT22;31162;51.076;3.784;2023-04-02T13:48:56;9.20;99.90
45409;DHT22;31162;51.076;3.784;2023-04-02T13:54:00;9.10;99.90
45409;DHT22;31162;51.076;3.784;2023-04-02T13:56:26;9.20;99.90
45409;DHT22;31162;51.076;3.784;2023-04-02T13:58:52;9.20;99.90
45409;DHT22;31162;51.076;3.784;2023-04-02T14:01:19;9.30;99.90
45409;DHT22;31162;51.076;3.784;2023-04-02T14:03:46;9.40;99.90
45409;DHT22;31162;51.076;3.784;2023-04-02T14:06:25;9.20;99.90
45409;DHT22;31162;51.076;3.784;2023-04-02T14:11:41;9.10;99.90
45409;DHT22;31162;51.076;3.784;2023-04-02T14:17:16;9.20;99.90
45409;DHT22;31162;51.076;3.784;2023-04-02T14:19:57;9.20;99.90
45409;DHT22;31162;51.076;3.784;2023-04-02T14:33:29;9.80;99.90
45409;DHT22;31162;51.076;3.784;2023-04-02T14:36:34;9.60;99.90
45409;DHT22;31162;51.076;3.784;2023-04-02T14:39:21;9.40;99.90
45409;DHT22;31162;51.076;3.784;2023-04-02T14:41:57;9.20;99.90
45409;DHT22;31162;51.076;3.784;2023-04-02T14:44:28;9.40;99.90
45409;DHT22;31162;51.076;3.784;2023-04-02T14:47:07;9.50;99.90
45409;DHT22;31162;51.076;3.784;2023-04-02T14:49:37;9.50;99.90
45409;DHT22;31162;51.076;3.784;2023-04-02T14:52:13;9.40;99.90
45409;DHT22;31162;51.076;3.784;2023-04-02T14:55:22;9.40;99.90
45409;DHT22;31162;51.076;3.784;2023-04-02T14:57:51;9.30;99.90
45409;DHT22;31162;51.076;3.784;2023-04-02T15:05:45;9.40;99.90
45409;DHT22;31162;51.076;3.784;2023-04-02T15:08:12;9.70;99.90
45409;DHT22;31162;51.076;3.784;2023-04-02T15:14:02;9.80;99.90
45409;DHT22;31162;51.076;3.784;2023-04-02T15:16:29;9.80;99.90
45409;DHT22;31162;51.076;3.784;2023-04-02T15:19:01;10.00;99.90
45409;DHT22;31162;51.076;3.784;2023-04-02T15:38:03;9.20;99.90
45409;DHT22;31162;51.076;3.784;2023-04-02T15:41:08;9.50;99.90
45409;DHT22;31162;51.076;3.784;2023-04-02T15:43:44;9.80;99.90
45409;DHT22;31162;51.076;3.784;2023-04-02T15:52:11;10.20;99.90
45409;DHT22;31162;51.076;3.784;2023-04-02T16:08:28;9.60;99.90
45409;DHT22;31162;51.076;3.784;2023-04-02T16:10:57;9.60;99.90
45409;DHT22;31162;51.076;3.784;2023-04-02T16:13:28;9.60;99.90
45409;DHT22;31162;51.076;3.784;2023-04-02T16:22:02;10.00;99.90
45409;DHT22;31162;51.076;3.784;2023-04-02T16:24:29;10.00;99.90
45409;DHT22;31162;51.076;3.784;2023-04-02T16:32:46;10.20;99.90
45409;DHT22;31162;51.076;3.784;2023-04-02T16:44:13;10.40;99.90
45409;DHT22;31162;51.076;3.784;2023-04-02T16:49:35;10.20;99.90
45409;DHT22;31162;51.076;3.784;2023-04-02T16:55:07;10.20;99.90
45409;DHT22;31162;51.076;3.784;2023-04-02T16:57:53;10.30;99.90
45409;DHT22;31162;51.076;3.784;2023-04-02T17:00:32;10.40;99.90
45409;DHT22;31162;51.076;3.784;2023-04-02T17:06:08;10.50;99.90
45409;DHT22;31162;51.076;3.784;2023-04-02T17:08:41;10.30;99.90
45409;DHT22;31162;51.076;3.784;2023-04-02T17:11:09;10.20;99.90
45409;DHT22;31162;51.076;3.784;2023-04-02T17:16:36;10.00;99.90
45409;DHT22;31162;51.076;3.784;2023-04-02T17:19:12;9.90;99.90
45409;DHT22;31162;51.076;3.784;2023-04-02T17:21:41;9.80;99.90
45409;DHT22;31162;51.076;3.784;2023-04-02T17:24:14;9.70;99.90
45409;DHT22;31162;51.076;3.784;2023-04-02T17:26:48;9.60;99.90
45409;DHT22;31162;51.076;3.784;2023-04-02T17:29:22;9.50;99.90
45409;DHT22;31162;51.076;3.784;2023-04-02T17:31:51;9.40;99.90
45409;DHT22;31162;51.076;3.784;2023-04-02T17:34:18;9.40;99.90
45409;DHT22;31162;51.076;3.784;2023-04-02T17:42:17;9.10;99.90
45409;DHT22;31162;51.076;3.784;2023-04-02T17:45:04;9.10;99.90
45409;DHT22;31162;51.076;3.784;2023-04-02T17:47:39;9.10;99.90
45409;DHT22;31162;51.076;3.784;2023-04-02T17:50:33;9.00;99.90
45409;DHT22;31162;51.076;3.784;2023-04-02T18:04:03;8.60;99.90
45409;DHT22;31162;51.076;3.784;2023-04-02T18:15:47;8.00;99.90
45409;DHT22;31162;51.076;3.784;2023-04-02T18:29:53;7.50;99.90
45409;DHT22;31162;51.076;3.784;2023-04-02T18:35:26;7.60;99.90
45409;DHT22;31162;51.076;3.784;2023-04-02T18:48:45;7.00;99.90
45409;DHT22;31162;51.076;3.784;2023-04-02T18:51:23;7.10;99.90
45409;DHT22;31162;51.076;3.784;2023-04-02T18:56:36;6.70;99.90
45409;DHT22;31162;51.076;3.784;2023-04-02T18:59:32;6.70;99.90
45409;DHT22;31162;51.076;3.784;2023-04-02T19:02:12;6.70;99.90
45409;DHT22;31162;51.076;3.784;2023-04-02T19:07:35;6.30;99.90
45409;DHT22;31162;51.076;3.784;2023-04-02T19:10:33;6.40;99.90
45409;DHT22;31162;51.076;3.784;2023-04-02T19:13:00;6.50;99.90
45409;DHT22;31162;51.076;3.784;2023-04-02T19:15:42;6.50;99.90
45409;DHT22;31162;51.076;3.784;2023-04-02T19:20:55;6.30;99.90
45409;DHT22;31162;51.076;3.784;2023-04-02T19:26:12;6.20;99.90
45409;DHT22;31162;51.076;3.784;2023-04-02T19:28:44;6.00;99.90
45409;DHT22;31162;51.076;3.784;2023-04-02T19:31:28;5.80;99.90
45409;DHT22;31162;51.076;3.784;2023-04-02T19:34:17;5.80;99.90
45409;DHT22;31162;51.076;3.784;2023-04-02T19:37:14;5.70;99.90
45409;DHT22;31162;51.076;3.784;2023-04-02T19:45:00;5.60;99.90
45409;DHT22;31162;51.076;3.784;2023-04-02T19:47:26;5.50;99.90
45409;DHT22;31162;51.076;3.784;2023-04-02T19:49:53;5.50;99.90
45409;DHT22;31162;51.076;3.784;2023-04-02T19:52:20;5.50;99.90
45409;DHT22;31162;51.076;3.784;2023-04-02T19:54:45;5.50;99.90
45409;DHT22;31162;51.076;3.784;2023-04-02T19:57:13;5.40;99.90
45409;DHT22;31162;51.076;3.784;2023-04-02T19:59:39;5.30;99.90
45409;DHT22;31162;51.076;3.784;2023-04-02T20:02:05;5.30;99.90
45409;DHT22;31162;51.076;3.784;2023-04-02T20:04:35;5.20;99.90
45409;DHT22;31162;51.076;3.784;2023-04-02T20:07:01;5.20;99.90
45409;DHT22;31162;51.076;3.784;2023-04-02T20:09:26;5.10;99.90
45409;DHT22;31162;51.076;3.784;2023-04-02T20:11:54;5.10;99.90
45409;DHT22;31162;51.076;3.784;2023-04-02T20:14:20;5.00;99.90
45409;DHT22;31162;51.076;3.784;2023-04-02T20:16:45;5.00;99.90
45409;DHT22;31162;51.076;3.784;2023-04-02T20:19:11;5.10;99.90
45409;DHT22;31162;51.076;3.784;2023-04-02T20:21:37;5.10;99.90
45409;DHT22;31162;51.076;3.784;2023-04-02T20:24:07;5.00;99.90
45409;DHT22;31162;51.076;3.784;2023-04-02T20:26:34;4.90;99.90
45409;DHT22;31162;51.076;3.784;2023-04-02T20:29:00;4.90;99.90
45409;DHT22;31162;51.076;3.784;2023-04-02T20:31:26;4.90;99.90
45409;DHT22;31162;51.076;3.784;2023-04-02T20:33:56;5.00;99.90
45409;DHT22;31162;51.076;3.784;2023-04-02T20:36:22;5.20;99.90
45409;DHT22;31162;51.076;3.784;2023-04-02T20:38:49;5.10;99.90
45409;DHT22;31162;51.076;3.784;2023-04-02T20:41:16;5.10;99.90
45409;DHT22;31162;51.076;3.784;2023-04-02T20:43:43;5.00;99.90
45409;DHT22;31162;51.076;3.784;2023-04-02T20:46:10;4.90;99.90
45409;DHT22;31162;51.076;3.784;2023-04-02T20:48:37;4.70;99.90
45409;DHT22;31162;51.076;3.784;2023-04-02T20:51:05;4.70;99.90
45409;DHT22;31162;51.076;3.784;2023-04-02T20:53:33;4.60;99.90
45409;DHT22;31162;51.076;3.784;2023-04-02T20:56:07;4.60;99.90
45409;DHT22;31162;51.076;3.784;2023-04-02T20:58:34;4.60;99.90
45409;DHT22;31162;51.076;3.784;2023-04-02T21:03:39;4.50;99.90
45409;DHT22;31162;51.076;3.784;2023-04-02T21:06:14;4.40;99.90
45409;DHT22;31162;51.076;3.784;2023-04-02T21:08:41;4.30;99.90
45409;DHT22;31162;51.076;3.784;2023-04-02T21:11:07;4.30;99.90
45409;DHT22;31162;51.076;3.784;2023-04-02T21:13:34;4.20;99.90
45409;DHT22;31162;51.076;3.784;2023-04-02T21:16:01;4.20;99.90
45409;DHT22;31162;51.076;3.784;2023-04-02T21:18:27;4.30;99.90
45409;DHT22;31162;51.076;3.784;2023-04-02T21:21:03;4.30;99.90
45409;DHT22;31162;51.076;3.784;2023-04-02T21:23:30;4.30;99.90
45409;DHT22;31162;51.076;3.784;2023-04-02T21:26:02;4.20;99.90
45409;DHT22;31162;51.076;3.784;2023-04-02T21:28:31;4.30;99.90
45409;DHT22;31162;51.076;3.784;2023-04-02T21:31:05;4.10;99.90
45409;DHT22;31162;51.076;3.784;2023-04-02T21:33:35;4.10;99.90
45409;DHT22;31162;51.076;3.784;2023-04-02T21:36:13;4.00;99.90